sensor_id;sensor_type;location;lat;lon;timestamp;P1;durP1;ratioP1;P2;durP2;ratioP2
53757;SDS011;39674;59.860;30.672;2023-05-07T00:01:45;939.67;;;861.13;;
53757;SDS011;39674;59.860;30.672;2023-05-07T00:04:56;929.03;;;854.50;;
53757;SDS011;39674;59.860;30.672;2023-05-07T00:10:02;1025.85;;;937.75;;
53757;SDS011;39674;59.860;30.672;2023-05-07T00:12:10;809.75;;;746.80;;
53757;SDS011;39674;59.860;30.672;2023-05-07T00:15:03;890.78;;;818.47;;
53757;SDS011;39674;59.860;30.672;2023-05-07T00:18:41;917.38;;;844.95;;
53757;SDS011;39674;59.860;30.672;2023-05-07T00:21:40;684.03;;;635.05;;
53757;SDS011;39674;59.860;30.672;2023-05-07T00:25:11;869.42;;;801.47;;
53757;SDS011;39674;59.860;30.672;2023-05-07T00:28:41;846.03;;;782.15;;
53757;SDS011;39674;59.860;30.672;2023-05-07T00:32:04;715.67;;;663.63;;
53757;SDS011;39674;59.860;30.672;2023-05-07T00:35:11;693.42;;;645.05;;
53757;SDS011;39674;59.860;30.672;2023-05-07T00:41:52;804.75;;;745.38;;
53757;SDS011;39674;59.860;30.672;2023-05-07T00:52:20;659.50;;;613.20;;
53757;SDS011;39674;59.860;30.672;2023-05-07T00:55:47;504.50;;;472.55;;
53757;SDS011;39674;59.860;30.672;2023-05-07T00:59:10;471.77;;;442.38;;
53757;SDS011;39674;59.860;30.672;2023-05-07T01:02:19;515.80;;;483.52;;
53757;SDS011;39674;59.860;30.672;2023-05-07T01:12:43;474.55;;;445.83;;
53757;SDS011;39674;59.860;30.672;2023-05-07T01:15:43;540.03;;;504.17;;
53757;SDS011;39674;59.860;30.672;2023-05-07T01:18:34;458.15;;;430.35;;
53757;SDS011;39674;59.860;30.672;2023-05-07T01:21:33;464.33;;;436.20;;
53757;SDS011;39674;59.860;30.672;2023-05-07T01:24:50;455.98;;;428.40;;
53757;SDS011;39674;59.860;30.672;2023-05-07T01:27:31;403.67;;;378.85;;
53757;SDS011;39674;59.860;30.672;2023-05-07T01:30:23;460.05;;;432.83;;
53757;SDS011;39674;59.860;30.672;2023-05-07T01:33:23;466.65;;;438.45;;
53757;SDS011;39674;59.860;30.672;2023-05-07T01:36:18;460.40;;;432.83;;
53757;SDS011;39674;59.860;30.672;2023-05-07T01:39:08;455.30;;;427.88;;
53757;SDS011;39674;59.860;30.672;2023-05-07T01:41:42;504.63;;;473.08;;
53757;SDS011;39674;59.860;30.672;2023-05-07T01:44:15;478.45;;;449.45;;
53757;SDS011;39674;59.860;30.672;2023-05-07T01:46:57;516.53;;;484.87;;
53757;SDS011;39674;59.860;30.672;2023-05-07T01:49:44;470.88;;;442.92;;
53757;SDS011;39674;59.860;30.672;2023-05-07T01:52:40;474.98;;;446.58;;
53757;SDS011;39674;59.860;30.672;2023-05-07T01:55:42;463.67;;;435.65;;
53757;SDS011;39674;59.860;30.672;2023-05-07T01:58:24;534.35;;;501.27;;
53757;SDS011;39674;59.860;30.672;2023-05-07T02:01:00;564.15;;;528.70;;
53757;SDS011;39674;59.860;30.672;2023-05-07T02:03:45;577.38;;;540.35;;
53757;SDS011;39674;59.860;30.672;2023-05-07T02:06:47;539.55;;;505.27;;
53757;SDS011;39674;59.860;30.672;2023-05-07T02:09:24;488.83;;;458.58;;
53757;SDS011;39674;59.860;30.672;2023-05-07T02:12:14;520.83;;;487.58;;
53757;SDS011;39674;59.860;30.672;2023-05-07T02:14:59;493.83;;;463.13;;
53757;SDS011;39674;59.860;30.672;2023-05-07T02:17:38;435.98;;;407.85;;
53757;SDS011;39674;59.860;30.672;2023-05-07T02:20:38;413.92;;;389.45;;
53757;SDS011;39674;59.860;30.672;2023-05-07T02:23:27;537.78;;;504.42;;
53757;SDS011;39674;59.860;30.672;2023-05-07T02:26:07;582.13;;;545.28;;
53757;SDS011;39674;59.860;30.672;2023-05-07T02:28:53;512.90;;;479.98;;
53757;SDS011;39674;59.860;30.672;2023-05-07T02:31:48;536.85;;;502.42;;
53757;SDS011;39674;59.860;30.672;2023-05-07T02:34:52;581.50;;;545.25;;
53757;SDS011;39674;59.860;30.672;2023-05-07T02:37:33;753.60;;;700.88;;
53757;SDS011;39674;59.860;30.672;2023-05-07T02:40:25;627.30;;;585.75;;
53757;SDS011;39674;59.860;30.672;2023-05-07T02:43:14;631.60;;;590.13;;
53757;SDS011;39674;59.860;30.672;2023-05-07T02:45:49;633.45;;;591.97;;
53757;SDS011;39674;59.860;30.672;2023-05-07T02:48:51;640.53;;;597.17;;
53757;SDS011;39674;59.860;30.672;2023-05-07T02:51:39;596.58;;;557.92;;
53757;SDS011;39674;59.860;30.672;2023-05-07T02:54:27;600.10;;;560.08;;
53757;SDS011;39674;59.860;30.672;2023-05-07T02:57:09;470.67;;;441.40;;
53757;SDS011;39674;59.860;30.672;2023-05-07T02:59:44;623.80;;;582.17;;
53757;SDS011;39674;59.860;30.672;2023-05-07T03:02:16;659.33;;;614.58;;
53757;SDS011;39674;59.860;30.672;2023-05-07T03:04:48;600.35;;;559.70;;
53757;SDS011;39674;59.860;30.672;2023-05-07T03:07:32;574.97;;;536.30;;
53757;SDS011;39674;59.860;30.672;2023-05-07T03:10:03;454.98;;;425.23;;
53757;SDS011;39674;59.860;30.672;2023-05-07T03:12:57;573.72;;;536.40;;
53757;SDS011;39674;59.860;30.672;2023-05-07T03:15:37;571.28;;;533.50;;
53757;SDS011;39674;59.860;30.672;2023-05-07T03:18:21;681.33;;;633.85;;
53757;SDS011;39674;59.860;30.672;2023-05-07T03:21:00;662.70;;;617.58;;
53757;SDS011;39674;59.860;30.672;2023-05-07T03:23:33;630.60;;;587.03;;
53757;SDS011;39674;59.860;30.672;2023-05-07T03:26:05;695.45;;;648.58;;
53757;SDS011;39674;59.860;30.672;2023-05-07T03:28:34;718.90;;;670.25;;
53757;SDS011;39674;59.860;30.672;2023-05-07T03:31:06;696.55;;;649.08;;
53757;SDS011;39674;59.860;30.672;2023-05-07T03:33:49;705.60;;;657.13;;
53757;SDS011;39674;59.860;30.672;2023-05-07T03:36:23;720.20;;;670.53;;
53757;SDS011;39674;59.860;30.672;2023-05-07T03:38:55;779.88;;;724.55;;
53757;SDS011;39674;59.860;30.672;2023-05-07T03:41:28;779.88;;;724.97;;
53757;SDS011;39674;59.860;30.672;2023-05-07T03:44:01;775.63;;;720.67;;
53757;SDS011;39674;59.860;30.672;2023-05-07T03:46:34;783.20;;;727.85;;
53757;SDS011;39674;59.860;30.672;2023-05-07T03:49:05;831.40;;;771.53;;
53757;SDS011;39674;59.860;30.672;2023-05-07T03:51:36;824.63;;;765.58;;
53757;SDS011;39674;59.860;30.672;2023-05-07T03:54:07;858.95;;;795.03;;
53757;SDS011;39674;59.860;30.672;2023-05-07T03:56:39;862.60;;;799.00;;
53757;SDS011;39674;59.860;30.672;2023-05-07T03:59:11;908.60;;;839.05;;
53757;SDS011;39674;59.860;30.672;2023-05-07T04:01:41;940.17;;;865.63;;
53757;SDS011;39674;59.860;30.672;2023-05-07T04:04:15;1021.65;;;934.53;;
53757;SDS011;39674;59.860;30.672;2023-05-07T04:06:45;1056.38;;;961.25;;
53757;SDS011;39674;59.860;30.672;2023-05-07T04:09:16;1115.28;;;999.90;;
53757;SDS011;39674;59.860;30.672;2023-05-07T04:11:50;1121.32;;;999.90;;
53757;SDS011;39674;59.860;30.672;2023-05-07T04:14:23;1139.60;;;999.90;;
53757;SDS011;39674;59.860;30.672;2023-05-07T04:17:02;1274.43;;;999.90;;
53757;SDS011;39674;59.860;30.672;2023-05-07T04:19:34;1158.35;;;999.90;;
53757;SDS011;39674;59.860;30.672;2023-05-07T04:22:04;1275.57;;;999.90;;
53757;SDS011;39674;59.860;30.672;2023-05-07T04:24:34;1879.97;;;999.90;;
53757;SDS011;39674;59.860;30.672;2023-05-07T04:27:05;1953.65;;;999.90;;
53757;SDS011;39674;59.860;30.672;2023-05-07T04:29:34;1999.90;;;999.90;;
53757;SDS011;39674;59.860;30.672;2023-05-07T04:32:04;1999.90;;;999.90;;
53757;SDS011;39674;59.860;30.672;2023-05-07T04:34:43;1999.90;;;999.90;;
53757;SDS011;39674;59.860;30.672;2023-05-07T04:37:24;1999.90;;;999.90;;
53757;SDS011;39674;59.860;30.672;2023-05-07T04:39:53;1999.90;;;999.90;;
53757;SDS011;39674;59.860;30.672;2023-05-07T04:42:22;1999.90;;;999.90;;
53757;SDS011;39674;59.860;30.672;2023-05-07T04:44:52;1999.90;;;999.90;;
53757;SDS011;39674;59.860;30.672;2023-05-07T04:47:22;1999.90;;;999.90;;
53757;SDS011;39674;59.860;30.672;2023-05-07T04:49:54;1999.90;;;999.90;;
53757;SDS011;39674;59.860;30.672;2023-05-07T04:52:24;1999.90;;;999.90;;
53757;SDS011;39674;59.860;30.672;2023-05-07T04:54:58;1999.90;;;999.90;;
53757;SDS011;39674;59.860;30.672;2023-05-07T04:57:30;1999.90;;;999.90;;
53757;SDS011;39674;59.860;30.672;2023-05-07T04:59:59;1999.90;;;999.90;;
53757;SDS011;39674;59.860;30.672;2023-05-07T05:05:08;1999.90;;;999.90;;
53757;SDS011;39674;59.860;30.672;2023-05-07T05:08:05;1999.90;;;999.90;;
53757;SDS011;39674;59.860;30.672;2023-05-07T05:11:00;1999.90;;;999.90;;
53757;SDS011;39674;59.860;30.672;2023-05-07T05:13:32;1999.90;;;999.90;;
53757;SDS011;39674;59.860;30.672;2023-05-07T05:16:10;1999.90;;;999.90;;
53757;SDS011;39674;59.860;30.672;2023-05-07T05:18:44;1999.90;;;999.90;;
53757;SDS011;39674;59.860;30.672;2023-05-07T05:21:26;1999.90;;;999.90;;
53757;SDS011;39674;59.860;30.672;2023-05-07T05:27:23;1999.90;;;999.90;;
53757;SDS011;39674;59.860;30.672;2023-05-07T05:29:52;1999.90;;;999.90;;
53757;SDS011;39674;59.860;30.672;2023-05-07T05:32:21;1999.90;;;999.90;;
53757;SDS011;39674;59.860;30.672;2023-05-07T05:34:55;1999.90;;;999.90;;
53757;SDS011;39674;59.860;30.672;2023-05-07T05:37:25;1999.90;;;999.90;;
53757;SDS011;39674;59.860;30.672;2023-05-07T05:39:58;1999.90;;;999.90;;
53757;SDS011;39674;59.860;30.672;2023-05-07T05:42:32;1999.90;;;999.90;;
53757;SDS011;39674;59.860;30.672;2023-05-07T05:45:09;1999.90;;;999.90;;
53757;SDS011;39674;59.860;30.672;2023-05-07T05:47:48;1999.90;;;999.90;;
53757;SDS011;39674;59.860;30.672;2023-05-07T05:50:21;1999.90;;;999.90;;
53757;SDS011;39674;59.860;30.672;2023-05-07T05:52:55;1999.90;;;999.90;;
53757;SDS011;39674;59.860;30.672;2023-05-07T05:55:36;1999.90;;;999.90;;
53757;SDS011;39674;59.860;30.672;2023-05-07T06:01:34;1999.90;;;999.90;;
53757;SDS011;39674;59.860;30.672;2023-05-07T06:04:27;1999.90;;;999.90;;
53757;SDS011;39674;59.860;30.672;2023-05-07T06:07:08;1999.90;;;999.90;;
53757;SDS011;39674;59.860;30.672;2023-05-07T06:09:47;1999.90;;;999.90;;
53757;SDS011;39674;59.860;30.672;2023-05-07T06:12:23;1999.90;;;999.90;;
53757;SDS011;39674;59.860;30.672;2023-05-07T06:15:02;1999.90;;;999.90;;
53757;SDS011;39674;59.860;30.672;2023-05-07T06:17:46;1999.90;;;999.90;;
53757;SDS011;39674;59.860;30.672;2023-05-07T06:20:38;1999.90;;;999.90;;
53757;SDS011;39674;59.860;30.672;2023-05-07T06:23:31;1999.90;;;999.90;;
53757;SDS011;39674;59.860;30.672;2023-05-07T06:26:01;1999.90;;;999.90;;
53757;SDS011;39674;59.860;30.672;2023-05-07T06:29:00;1999.90;;;999.90;;
53757;SDS011;39674;59.860;30.672;2023-05-07T06:31:55;1999.90;;;999.90;;
53757;SDS011;39674;59.860;30.672;2023-05-07T06:34:51;1999.90;;;999.90;;
53757;SDS011;39674;59.860;30.672;2023-05-07T06:37:23;1999.90;;;999.90;;
53757;SDS011;39674;59.860;30.672;2023-05-07T06:40:16;1999.90;;;999.90;;
53757;SDS011;39674;59.860;30.672;2023-05-07T06:42:49;1999.90;;;999.90;;
53757;SDS011;39674;59.860;30.672;2023-05-07T06:45:47;1999.90;;;999.90;;
53757;SDS011;39674;59.860;30.672;2023-05-07T06:48:48;1999.90;;;999.90;;
53757;SDS011;39674;59.860;30.672;2023-05-07T06:51:57;1999.90;;;999.90;;
53757;SDS011;39674;59.860;30.672;2023-05-07T06:54:38;1999.90;;;999.90;;
53757;SDS011;39674;59.860;30.672;2023-05-07T06:57:34;1999.90;;;999.90;;
53757;SDS011;39674;59.860;30.672;2023-05-07T07:00:43;1999.90;;;999.90;;
53757;SDS011;39674;59.860;30.672;2023-05-07T07:03:34;1999.90;;;999.90;;
53757;SDS011;39674;59.860;30.672;2023-05-07T07:06:06;1999.90;;;999.90;;
53757;SDS011;39674;59.860;30.672;2023-05-07T07:08:35;1999.90;;;999.90;;
53757;SDS011;39674;59.860;30.672;2023-05-07T07:11:34;1999.90;;;999.90;;
53757;SDS011;39674;59.860;30.672;2023-05-07T07:14:06;1999.90;;;999.90;;
53757;SDS011;39674;59.860;30.672;2023-05-07T07:16:54;1999.90;;;999.90;;
53757;SDS011;39674;59.860;30.672;2023-05-07T07:19:32;1999.90;;;999.90;;
53757;SDS011;39674;59.860;30.672;2023-05-07T07:22:06;1999.90;;;999.90;;
53757;SDS011;39674;59.860;30.672;2023-05-07T07:24:36;1999.90;;;999.90;;
53757;SDS011;39674;59.860;30.672;2023-05-07T07:27:17;1999.90;;;999.90;;
53757;SDS011;39674;59.860;30.672;2023-05-07T07:30:00;1999.90;;;999.90;;
53757;SDS011;39674;59.860;30.672;2023-05-07T07:33:11;1999.90;;;999.90;;
53757;SDS011;39674;59.860;30.672;2023-05-07T07:35:52;1999.90;;;999.90;;
53757;SDS011;39674;59.860;30.672;2023-05-07T07:38:39;1999.90;;;999.90;;
53757;SDS011;39674;59.860;30.672;2023-05-07T07:52:03;1999.90;;;999.90;;
53757;SDS011;39674;59.860;30.672;2023-05-07T08:10:04;1999.90;;;999.90;;
53757;SDS011;39674;59.860;30.672;2023-05-07T08:13:15;1999.90;;;999.90;;
53757;SDS011;39674;59.860;30.672;2023-05-07T08:16:22;1999.90;;;999.90;;
53757;SDS011;39674;59.860;30.672;2023-05-07T08:19:28;1999.90;;;999.90;;
53757;SDS011;39674;59.860;30.672;2023-05-07T08:22:13;1999.90;;;999.90;;
53757;SDS011;39674;59.860;30.672;2023-05-07T08:25:13;1999.90;;;999.90;;
53757;SDS011;39674;59.860;30.672;2023-05-07T08:27:50;1999.90;;;999.90;;
53757;SDS011;39674;59.860;30.672;2023-05-07T08:30:38;1999.90;;;999.90;;
53757;SDS011;39674;59.860;30.672;2023-05-07T08:33:44;1999.90;;;999.90;;
53757;SDS011;39674;59.860;30.672;2023-05-07T08:36:35;1999.90;;;999.90;;
53757;SDS011;39674;59.860;30.672;2023-05-07T08:39:18;1999.90;;;999.90;;
53757;SDS011;39674;59.860;30.672;2023-05-07T08:42:04;1999.90;;;999.90;;
53757;SDS011;39674;59.860;30.672;2023-05-07T08:44:48;1999.90;;;999.90;;
53757;SDS011;39674;59.860;30.672;2023-05-07T08:47:27;1999.90;;;999.90;;
53757;SDS011;39674;59.860;30.672;2023-05-07T08:50:15;1999.90;;;999.90;;
53757;SDS011;39674;59.860;30.672;2023-05-07T08:52:56;1999.90;;;999.90;;
53757;SDS011;39674;59.860;30.672;2023-05-07T08:56:29;1999.90;;;999.90;;
53757;SDS011;39674;59.860;30.672;2023-05-07T09:11:32;1999.90;;;999.90;;
53757;SDS011;39674;59.860;30.672;2023-05-07T09:14:37;1999.90;;;999.90;;
53757;SDS011;39674;59.860;30.672;2023-05-07T09:17:44;1999.90;;;999.90;;
53757;SDS011;39674;59.860;30.672;2023-05-07T09:20:19;1999.90;;;999.90;;
53757;SDS011;39674;59.860;30.672;2023-05-07T09:23:03;1999.90;;;999.90;;
53757;SDS011;39674;59.860;30.672;2023-05-07T09:35:29;1999.90;;;999.90;;
53757;SDS011;39674;59.860;30.672;2023-05-07T09:42:37;1999.90;;;999.90;;
53757;SDS011;39674;59.860;30.672;2023-05-07T09:46:24;1999.90;;;999.90;;
53757;SDS011;39674;59.860;30.672;2023-05-07T09:49:54;1999.90;;;999.90;;
53757;SDS011;39674;59.860;30.672;2023-05-07T09:52:42;1999.90;;;999.90;;
53757;SDS011;39674;59.860;30.672;2023-05-07T09:56:23;1999.90;;;999.90;;
53757;SDS011;39674;59.860;30.672;2023-05-07T09:59:43;1999.90;;;999.90;;
53757;SDS011;39674;59.860;30.672;2023-05-07T10:03:20;1999.90;;;999.90;;
53757;SDS011;39674;59.860;30.672;2023-05-07T10:06:50;1999.90;;;999.90;;
53757;SDS011;39674;59.860;30.672;2023-05-07T10:10:14;1999.90;;;999.90;;
53757;SDS011;39674;59.860;30.672;2023-05-07T10:13:52;1999.90;;;999.90;;
53757;SDS011;39674;59.860;30.672;2023-05-07T10:17:22;1999.90;;;999.90;;
53757;SDS011;39674;59.860;30.672;2023-05-07T10:21:44;1999.90;;;999.90;;
53757;SDS011;39674;59.860;30.672;2023-05-07T10:25:16;1999.90;;;999.90;;
53757;SDS011;39674;59.860;30.672;2023-05-07T10:37:25;1999.90;;;999.90;;
53757;SDS011;39674;59.860;30.672;2023-05-07T11:16:36;1999.90;;;999.90;;
53757;SDS011;39674;59.860;30.672;2023-05-07T11:34:17;1999.90;;;999.90;;
53757;SDS011;39674;59.860;30.672;2023-05-07T11:38:09;1999.90;;;999.90;;
53757;SDS011;39674;59.860;30.672;2023-05-07T11:45:22;1999.90;;;999.90;;
53757;SDS011;39674;59.860;30.672;2023-05-07T12:41:03;1999.90;;;999.90;;
53757;SDS011;39674;59.860;30.672;2023-05-07T14:08:07;1999.90;;;999.90;;
53757;SDS011;39674;59.860;30.672;2023-05-07T18:06:47;1999.90;;;999.90;;
53757;SDS011;39674;59.860;30.672;2023-05-07T18:10:00;1999.90;;;999.90;;
53757;SDS011;39674;59.860;30.672;2023-05-07T22:45:26;1742.82;;;833.38;;
53757;SDS011;39674;59.860;30.672;2023-05-07T22:53:34;1999.90;;;999.90;;
53757;SDS011;39674;59.860;30.672;2023-05-07T22:56:12;1999.90;;;999.90;;
53757;SDS011;39674;59.860;30.672;2023-05-07T22:58:46;1999.90;;;865.33;;
53757;SDS011;39674;59.860;30.672;2023-05-07T23:01:25;1999.90;;;998.55;;
53757;SDS011;39674;59.860;30.672;2023-05-07T23:03:58;1999.90;;;892.40;;
53757;SDS011;39674;59.860;30.672;2023-05-07T23:06:44;1999.90;;;999.90;;
53757;SDS011;39674;59.860;30.672;2023-05-07T23:09:25;1999.90;;;716.20;;
53757;SDS011;39674;59.860;30.672;2023-05-07T23:12:12;1999.90;;;999.90;;
53757;SDS011;39674;59.860;30.672;2023-05-07T23:14:49;1882.35;;;622.35;;
53757;SDS011;39674;59.860;30.672;2023-05-07T23:44:23;1494.70;;;621.25;;
